createdAt,value
2019-06-07T22:16:48.844Z,11.78
2019-06-07T22:19:17.665Z,13.45
2019-06-07T22:23:10.643Z,12.68
2019-06-07T22:28:10.222Z,12.45
2019-06-07T22:30:40.251Z,11.63
2019-06-07T22:33:10.626Z,12.33
2019-06-07T22:35:40.628Z,12.13
2019-06-07T22:38:10.443Z,12.33
2019-06-07T22:40:40.254Z,11.97
2019-06-07T22:43:10.312Z,12.75
2019-06-07T22:45:40.250Z,12.90
2019-06-07T22:48:11.308Z,12.78
2019-06-07T22:50:41.215Z,12.30
2019-06-07T22:53:11.429Z,12.53
2019-06-07T22:55:42.688Z,13.58
2019-06-07T22:58:12.610Z,13.13
2019-06-07T23:00:43.032Z,12.73
2019-06-07T23:03:16.770Z,13.83
2019-06-07T23:05:47.892Z,13.55
2019-06-07T23:08:19.005Z,13.18
2019-06-07T23:10:49.612Z,13.00
2019-06-07T23:13:21.443Z,12.65
2019-06-07T23:15:51.563Z,14.98
2019-06-07T23:18:24.706Z,13.00
2019-06-07T23:20:54.678Z,13.40
2019-06-07T23:23:24.548Z,12.95
2019-06-07T23:25:54.358Z,14.68
2019-06-07T23:28:24.283Z,14.63
2019-06-07T23:30:53.982Z,15.23
2019-06-07T23:33:23.668Z,15.03
2019-06-07T23:35:53.398Z,15.20
2019-06-07T23:38:23.170Z,14.87
2019-06-07T23:40:52.888Z,16.42
2019-06-07T23:43:22.579Z,21.68
2019-06-07T23:45:52.237Z,15.83
2019-06-07T23:48:21.910Z,19.23
2019-06-07T23:50:51.718Z,18.73
2019-06-07T23:53:22.195Z,16.45
2019-06-07T23:55:53.119Z,16.35
2019-06-07T23:58:22.887Z,16.20
